Time;durP1;ratioP1;P1;durP2;ratioP2;P2;SDS_P1;SDS_P2;PMS_P1;PMS_P2;Temp;Humidity;BMP_temperature;BMP_pressure;BME280_temperature;BME280_humidity;BME280_pressure;Samples;Min_cycle;Max_cycle;Signal;HPM_P1;HPM_P2
2021/12/30 00:00:51;;;;;;;86.60;37.57;;;1.90;99.90;;;;;;5073721;28;20236;-66
2021/12/30 00:03:19;;;;;;;92.20;36.10;;;1.90;99.90;;;;;;5073604;28;20201;-66
2021/12/30 00:05:45;;;;;;;88.30;38.27;;;1.90;99.90;;;;;;5073480;28;20296;-67
2021/12/30 00:08:13;;;;;;;90.27;39.50;;;1.90;99.90;;;;;;5073632;28;20236;-66
2021/12/30 00:10:41;;;;;;;90.93;38.63;;;2.00;99.90;;;;;;5079929;28;20217;-67
2021/12/30 00:13:08;;;;;;;84.10;36.33;;;1.90;99.90;;;;;;5058836;28;20634;-68
2021/12/30 00:15:37;;;;;;;84.00;34.37;;;1.90;99.90;;;;;;5069065;28;20205;-67
2021/12/30 00:18:05;;;;;;;89.60;37.90;;;2.00;99.90;;;;;;5071577;28;20745;-68
2021/12/30 00:20:32;;;;;;;87.17;36.63;;;1.90;99.90;;;;;;5076256;28;20637;-67
2021/12/30 00:23:02;;;;;;;90.87;39.23;;;2.00;99.90;;;;;;5064882;28;20205;-66
2021/12/30 00:25:37;;;;;;;91.30;37.27;;;2.00;99.90;;;;;;5073378;28;20286;-68
2021/12/30 00:28:04;;;;;;;95.60;38.13;;;2.00;99.90;;;;;;5073808;28;20239;-67
2021/12/30 00:30:31;;;;;;;92.23;38.73;;;2.00;99.90;;;;;;5078422;28;20235;-67
2021/12/30 00:33:00;;;;;;;90.17;38.03;;;2.00;99.90;;;;;;5073198;28;20206;-66
2021/12/30 00:35:27;;;;;;;91.30;37.83;;;2.10;99.90;;;;;;5072477;28;20209;-67
2021/12/30 00:37:54;;;;;;;86.00;36.33;;;2.10;99.90;;;;;;5072485;28;20244;-67
2021/12/30 00:40:21;;;;;;;89.63;37.77;;;2.20;99.90;;;;;;5072697;28;20569;-67
2021/12/30 00:42:48;;;;;;;83.47;36.27;;;2.20;99.90;;;;;;5072928;28;20197;-67
2021/12/30 00:45:15;;;;;;;81.03;35.47;;;2.20;99.90;;;;;;5073141;28;20243;-68
2021/12/30 00:47:42;;;;;;;85.60;35.77;;;2.20;99.90;;;;;;5073224;28;20213;-67
2021/12/30 00:50:11;;;;;;;81.30;34.00;;;2.20;99.90;;;;;;5085119;28;20590;-67
2021/12/30 00:52:38;;;;;;;76.50;33.07;;;2.30;99.90;;;;;;5072810;28;20215;-66
2021/12/30 00:55:07;;;;;;;81.60;33.53;;;2.30;99.90;;;;;;5073110;28;20202;-67
2021/12/30 00:57:34;;;;;;;77.97;35.37;;;2.30;99.90;;;;;;5073410;28;20686;-67
2021/12/30 01:00:00;;;;;;;79.87;34.90;;;2.30;99.90;;;;;;5085704;28;20284;-67
2021/12/30 01:02:27;;;;;;;82.43;34.57;;;2.30;99.90;;;;;;5072568;28;20211;-66
2021/12/30 01:04:54;;;;;;;80.20;36.00;;;2.30;99.90;;;;;;5072501;28;20300;-66
2021/12/30 01:07:23;;;;;;;67.00;30.73;;;2.30;99.90;;;;;;5072474;28;20201;-67
2021/12/30 01:09:50;;;;;;;77.23;34.63;;;2.30;99.90;;;;;;5072902;28;20205;-66
2021/12/30 01:12:18;;;;;;;73.23;34.00;;;2.30;99.90;;;;;;5072002;28;20227;-66
2021/12/30 01:14:47;;;;;;;78.07;34.57;;;2.30;99.90;;;;;;5072006;28;20211;-67
2021/12/30 01:17:19;;;;;;;71.03;31.33;;;2.30;99.90;;;;;;5073314;28;20201;-66
2021/12/30 01:19:47;;;;;;;76.40;35.13;;;2.30;99.90;;;;;;5074968;28;20746;-67
2021/12/30 01:22:17;;;;;;;84.33;34.57;;;2.30;99.90;;;;;;5072691;28;20666;-66
2021/12/30 01:24:46;;;;;;;83.17;34.57;;;2.40;99.90;;;;;;5074510;28;20285;-66
2021/12/30 01:27:13;;;;;;;75.73;33.07;;;2.30;99.90;;;;;;5074146;28;20229;-66
2021/12/30 01:29:40;;;;;;;75.10;32.67;;;2.40;99.90;;;;;;5073266;28;20291;-66
2021/12/30 01:32:07;;;;;;;79.37;33.07;;;2.40;99.90;;;;;;5072854;28;20758;-66
2021/12/30 01:34:35;;;;;;;75.90;34.00;;;2.40;99.90;;;;;;5073483;28;20205;-66
2021/12/30 01:37:04;;;;;;;72.13;33.80;;;2.40;99.90;;;;;;5073596;28;20736;-67
2021/12/30 01:39:33;;;;;;;79.53;35.63;;;2.40;99.90;;;;;;5073548;28;20213;-67
2021/12/30 01:42:01;;;;;;;76.17;33.73;;;2.40;99.90;;;;;;5081174;28;20291;-67
2021/12/30 01:44:29;;;;;;;82.07;34.67;;;2.40;99.90;;;;;;5073577;28;20209;-66
2021/12/30 01:46:56;;;;;;;74.73;33.33;;;2.40;99.90;;;;;;5073912;28;20213;-66
2021/12/30 01:49:24;;;;;;;77.87;34.90;;;2.40;99.90;;;;;;5072515;28;20209;-67
2021/12/30 01:51:52;;;;;;;79.47;35.40;;;2.50;99.90;;;;;;5071252;28;20225;-66
2021/12/30 01:54:20;;;;;;;75.37;33.80;;;2.40;99.90;;;;;;5072757;28;20727;-66
2021/12/30 01:56:50;;;;;;;80.60;34.37;;;2.50;99.90;;;;;;5071909;28;20256;-67
2021/12/30 01:59:19;;;;;;;76.63;32.63;;;2.50;99.90;;;;;;5079397;28;20635;-68
2021/12/30 02:01:46;;;;;;;78.03;33.97;;;2.50;99.90;;;;;;5076347;28;20197;-67
2021/12/30 02:04:13;;;;;;;77.70;32.30;;;2.50;99.90;;;;;;5076618;28;20227;-66
2021/12/30 02:06:40;;;;;;;77.80;34.27;;;2.50;99.90;;;;;;5076551;28;20493;-67
2021/12/30 02:09:07;;;;;;;68.33;31.07;;;2.50;99.90;;;;;;5083257;28;20208;-66
2021/12/30 02:11:35;;;;;;;65.03;31.63;;;2.50;99.90;;;;;;5083074;28;20232;-66
2021/12/30 02:14:02;;;;;;;79.37;34.23;;;2.60;99.90;;;;;;5076422;28;20212;-66
2021/12/30 02:16:30;;;;;;;80.47;32.97;;;2.50;99.90;;;;;;5075940;28;20205;-67
2021/12/30 02:18:57;;;;;;;71.07;32.07;;;2.60;99.90;;;;;;5077013;28;20240;-66
2021/12/30 02:21:25;;;;;;;74.83;33.53;;;2.50;99.90;;;;;;5076135;28;20201;-66
2021/12/30 02:23:52;;;;;;;70.27;33.57;;;2.50;99.90;;;;;;5077083;28;20546;-66
2021/12/30 02:26:20;;;;;;;73.00;33.73;;;2.60;99.90;;;;;;5076741;28;20201;-66
2021/12/30 02:28:47;;;;;;;81.00;33.97;;;2.60;99.90;;;;;;5072325;28;20233;-67
2021/12/30 02:31:18;;;;;;;78.03;34.17;;;2.60;99.90;;;;;;5076286;28;20231;-66
2021/12/30 02:33:45;;;;;;;72.67;34.80;;;2.60;99.90;;;;;;5076743;28;20292;-67
2021/12/30 02:36:13;;;;;;;78.67;34.90;;;2.60;99.90;;;;;;5069956;28;20606;-67
2021/12/30 02:38:45;;;;;;;73.13;34.57;;;2.60;99.90;;;;;;5074809;28;20205;-67
2021/12/30 02:41:15;;;;;;;73.03;35.13;;;2.70;99.90;;;;;;5074287;28;20270;-65
2021/12/30 02:43:42;;;;;;;76.20;35.60;;;2.70;99.90;;;;;;5074098;28;20681;-66
2021/12/30 02:46:10;;;;;;;75.23;32.97;;;2.60;99.90;;;;;;5074048;28;20201;-66
2021/12/30 02:48:41;;;;;;;75.63;34.23;;;2.60;99.90;;;;;;5074399;28;20211;-67
2021/12/30 02:51:10;;;;;;;78.73;33.60;;;2.70;99.90;;;;;;5075545;28;20610;-67
2021/12/30 02:53:38;;;;;;;73.97;33.83;;;2.60;99.90;;;;;;5073907;28;20217;-67
2021/12/30 02:56:07;;;;;;;75.37;33.60;;;2.70;99.90;;;;;;5084579;28;20228;-67
2021/12/30 02:58:34;;;;;;;75.10;33.43;;;2.60;99.90;;;;;;5079929;28;20209;-67
2021/12/30 03:01:08;;;;;;;73.67;33.87;;;2.60;99.90;;;;;;5074130;28;20219;-67
2021/12/30 03:03:35;;;;;;;80.30;35.67;;;2.60;99.90;;;;;;5073309;28;20201;-67
2021/12/30 03:06:05;;;;;;;75.93;35.67;;;2.60;99.90;;;;;;5074024;28;20650;-67
2021/12/30 03:08:32;;;;;;;70.77;34.87;;;2.70;99.90;;;;;;5073463;28;20212;-67
2021/12/30 03:11:00;;;;;;;73.73;33.23;;;2.70;99.90;;;;;;5073838;28;20240;-68
2021/12/30 03:13:31;;;;;;;77.20;35.63;;;2.60;99.90;;;;;;5072563;28;20220;-67
2021/12/30 03:15:59;;;;;;;72.60;33.03;;;2.70;99.90;;;;;;5074318;28;20216;-66
2021/12/30 03:18:26;;;;;;;77.63;33.87;;;2.70;99.90;;;;;;5073653;28;20209;-67
2021/12/30 03:20:53;;;;;;;72.43;33.27;;;2.70;99.90;;;;;;5068877;28;20212;-66
2021/12/30 03:23:21;;;;;;;73.73;34.23;;;2.70;99.90;;;;;;5073929;28;20764;-65
2021/12/30 03:25:48;;;;;;;72.90;35.97;;;2.70;99.90;;;;;;5079080;28;20201;-67
2021/12/30 03:28:15;;;;;;;71.53;35.70;;;2.80;99.90;;;;;;5073169;28;20233;-66
2021/12/30 03:30:43;;;;;;;74.30;36.23;;;2.70;99.90;;;;;;5073543;28;20652;-66
2021/12/30 03:33:10;;;;;;;71.93;33.70;;;2.80;99.90;;;;;;5073322;28;20677;-66
2021/12/30 03:35:38;;;;;;;75.50;35.70;;;2.80;99.90;;;;;;5073855;28;20552;-66
2021/12/30 03:38:06;;;;;;;73.57;35.23;;;2.80;99.90;;;;;;5073228;28;20213;-66
2021/12/30 03:40:34;;;;;;;73.87;33.60;;;2.80;99.90;;;;;;5072608;28;20220;-66
2021/12/30 03:43:01;;;;;;;73.80;33.97;;;2.80;99.90;;;;;;5072939;28;20291;-66
2021/12/30 03:45:28;;;;;;;75.40;35.37;;;2.80;99.90;;;;;;5072372;28;20209;-66
2021/12/30 03:47:56;;;;;;;80.23;36.10;;;2.80;99.90;;;;;;5072166;28;20569;-66
2021/12/30 03:50:29;;;;;;;81.07;36.07;;;2.80;99.90;;;;;;5071920;28;20300;-67
2021/12/30 03:52:58;;;;;;;79.00;36.37;;;2.80;99.90;;;;;;5073152;28;20276;-66
2021/12/30 03:55:26;;;;;;;80.00;36.40;;;2.70;99.90;;;;;;5072771;28;20197;-66
2021/12/30 03:57:54;;;;;;;72.60;35.53;;;2.70;99.90;;;;;;5072555;28;20239;-66
2021/12/30 04:00:23;;;;;;;78.00;36.07;;;2.80;99.90;;;;;;5072666;28;20209;-66
2021/12/30 04:02:50;;;;;;;77.77;36.27;;;2.80;99.90;;;;;;5073256;28;20632;-66
2021/12/30 04:05:19;;;;;;;84.87;36.90;;;2.80;99.90;;;;;;5074221;28;20197;-65
2021/12/30 04:07:46;;;;;;;84.40;36.20;;;2.80;99.90;;;;;;5072339;28;20201;-66
2021/12/30 04:10:15;;;;;;;80.30;37.13;;;2.80;99.90;;;;;;5072968;28;20213;-67
2021/12/30 04:12:42;;;;;;;73.13;34.90;;;2.80;99.90;;;;;;5073125;28;20225;-66
2021/12/30 04:15:09;;;;;;;79.03;37.20;;;2.80;99.90;;;;;;5072728;28;20198;-66
2021/12/30 04:17:37;;;;;;;77.73;36.30;;;2.80;99.90;;;;;;5084794;28;20211;-67
2021/12/30 04:20:04;;;;;;;85.30;37.67;;;2.80;99.90;;;;;;5071116;28;20214;-66
2021/12/30 04:22:32;;;;;;;84.07;37.23;;;2.80;99.90;;;;;;5072044;28;20204;-66
2021/12/30 04:24:59;;;;;;;88.23;39.43;;;2.80;99.90;;;;;;5073473;28;20290;-67
2021/12/30 04:27:26;;;;;;;75.43;36.53;;;2.90;99.90;;;;;;5072020;28;20672;-67
2021/12/30 04:29:53;;;;;;;88.50;37.60;;;2.90;99.90;;;;;;5071684;28;20209;-66
2021/12/30 04:32:20;;;;;;;72.63;34.93;;;2.90;99.90;;;;;;5071261;28;20751;-67
2021/12/30 04:34:47;;;;;;;80.17;38.37;;;2.90;99.90;;;;;;5071970;28;20220;-67
2021/12/30 04:37:14;;;;;;;78.20;35.13;;;2.90;99.90;;;;;;5072318;28;20585;-66
2021/12/30 04:39:42;;;;;;;82.10;36.83;;;2.90;99.90;;;;;;5072513;28;20205;-67
2021/12/30 04:42:09;;;;;;;79.33;36.00;;;2.90;99.90;;;;;;5071754;28;20668;-66
2021/12/30 04:44:36;;;;;;;75.93;34.20;;;3.00;99.90;;;;;;5072071;28;20219;-66
2021/12/30 04:47:03;;;;;;;70.07;34.37;;;3.00;99.90;;;;;;5072242;28;20216;-66
2021/12/30 04:49:30;;;;;;;77.00;34.00;;;3.00;99.90;;;;;;5071690;28;20224;-67
2021/12/30 04:51:57;;;;;;;78.37;35.13;;;3.00;99.90;;;;;;5070554;28;20235;-67
2021/12/30 04:54:24;;;;;;;76.60;34.53;;;3.00;99.90;;;;;;5072041;28;20216;-66
2021/12/30 04:56:52;;;;;;;76.17;35.50;;;3.10;99.90;;;;;;5071893;28;20243;-67
2021/12/30 04:59:19;;;;;;;76.00;35.77;;;3.10;99.90;;;;;;5071425;28;20208;-67
2021/12/30 05:01:46;;;;;;;71.37;34.60;;;3.00;99.90;;;;;;5071295;28;20585;-66
2021/12/30 05:04:12;;;;;;;78.43;34.43;;;3.10;99.90;;;;;;5072048;28;20217;-66
2021/12/30 05:06:39;;;;;;;69.90;34.07;;;3.10;99.90;;;;;;5071580;28;20213;-67
2021/12/30 05:09:08;;;;;;;73.43;34.53;;;3.10;99.90;;;;;;5071378;28;20205;-67
2021/12/30 05:11:36;;;;;;;76.57;34.10;;;3.10;99.90;;;;;;5070881;28;20248;-66
2021/12/30 05:14:04;;;;;;;73.13;33.33;;;3.20;99.90;;;;;;5070938;28;20205;-67
2021/12/30 05:16:31;;;;;;;82.00;36.60;;;3.10;99.90;;;;;;5071605;28;20205;-66
2021/12/30 05:18:58;;;;;;;75.23;35.17;;;3.20;99.90;;;;;;5071214;28;20288;-66
2021/12/30 05:21:25;;;;;;;71.67;33.10;;;3.20;99.90;;;;;;5071818;28;20300;-67
2021/12/30 05:23:52;;;;;;;75.77;35.07;;;3.20;99.90;;;;;;5071088;28;20276;-67
2021/12/30 05:26:22;;;;;;;76.13;33.70;;;3.30;99.90;;;;;;5071354;28;20209;-67
2021/12/30 05:28:49;;;;;;;70.50;33.00;;;3.30;99.90;;;;;;5070810;28;20237;-66
2021/12/30 05:31:17;;;;;;;74.07;33.83;;;3.30;99.90;;;;;;5070800;28;20205;-66
2021/12/30 05:33:44;;;;;;;75.07;33.93;;;3.30;99.90;;;;;;5071264;28;20209;-66
2021/12/30 05:36:11;;;;;;;71.17;33.93;;;3.30;99.90;;;;;;5070616;28;20211;-66
2021/12/30 05:38:38;;;;;;;79.17;34.20;;;3.30;99.90;;;;;;5070852;28;20550;-66
2021/12/30 05:41:04;;;;;;;69.33;33.00;;;3.40;99.90;;;;;;5070933;28;20208;-66
2021/12/30 05:43:31;;;;;;;77.93;35.30;;;3.40;99.90;;;;;;5071230;28;20201;-67
2021/12/30 05:45:58;;;;;;;76.03;34.37;;;3.40;99.90;;;;;;5072287;28;20197;-66
2021/12/30 05:48:27;;;;;;;66.63;33.17;;;3.40;99.90;;;;;;5071329;28;20702;-66
2021/12/30 05:50:59;;;;;;;77.90;34.60;;;3.40;99.90;;;;;;5070453;28;20558;-67
2021/12/30 05:53:26;;;;;;;79.90;35.83;;;3.40;99.90;;;;;;5070395;28;20213;-66
2021/12/30 05:55:53;;;;;;;78.33;34.80;;;3.40;99.90;;;;;;5070584;28;20216;-66
2021/12/30 05:58:20;;;;;;;78.00;34.47;;;3.40;99.90;;;;;;5070543;28;20215;-67
2021/12/30 06:00:47;;;;;;;74.20;33.83;;;3.40;99.90;;;;;;5077423;28;20603;-67
2021/12/30 06:03:15;;;;;;;76.10;34.90;;;3.40;99.90;;;;;;5076549;28;20208;-67
2021/12/30 06:05:43;;;;;;;76.97;35.50;;;3.40;99.90;;;;;;5071671;28;20425;-66
2021/12/30 06:08:10;;;;;;;79.20;34.53;;;3.50;99.90;;;;;;5071265;28;20209;-67
2021/12/30 06:10:37;;;;;;;78.17;33.80;;;3.50;99.90;;;;;;5071134;28;20219;-66
2021/12/30 06:13:04;;;;;;;80.10;33.47;;;3.50;99.90;;;;;;5071222;28;20776;-66
2021/12/30 06:15:31;;;;;;;74.67;34.17;;;3.50;99.90;;;;;;5070387;28;20280;-66
2021/12/30 06:17:58;;;;;;;75.43;33.33;;;3.40;99.90;;;;;;5071358;28;20205;-67
2021/12/30 06:20:25;;;;;;;69.83;32.90;;;3.50;99.90;;;;;;5070314;28;20659;-67
2021/12/30 06:22:53;;;;;;;75.23;34.13;;;3.50;99.90;;;;;;5070964;28;20208;-65
2021/12/30 06:25:20;;;;;;;68.77;32.40;;;3.50;99.90;;;;;;5070299;28;20201;-66
2021/12/30 06:27:47;;;;;;;79.63;33.17;;;3.50;99.90;;;;;;5069942;28;20237;-67
2021/12/30 06:30:14;;;;;;;66.30;31.70;;;3.50;99.90;;;;;;5070600;28;20662;-67
2021/12/30 06:32:41;;;;;;;74.70;31.30;;;3.40;99.90;;;;;;5079547;28;20532;-66
2021/12/30 06:35:09;;;;;;;71.57;30.03;;;3.50;99.90;;;;;;5069982;28;20215;-66
2021/12/30 06:37:36;;;;;;;70.87;30.80;;;3.50;99.90;;;;;;5070252;28;20205;-66
2021/12/30 06:40:07;;;;;;;70.23;31.83;;;3.50;99.90;;;;;;5069050;28;20236;-66
2021/12/30 06:42:34;;;;;;;68.70;30.50;;;3.50;99.90;;;;;;5075007;28;20204;-67
2021/12/30 06:45:00;;;;;;;71.73;31.77;;;3.40;99.90;;;;;;5071021;28;20212;-66
2021/12/30 06:47:27;;;;;;;63.10;29.50;;;3.50;99.90;;;;;;5070315;28;20220;-67
2021/12/30 06:50:00;;;;;;;56.83;27.20;;;3.50;99.90;;;;;;5071945;28;20290;-66
2021/12/30 06:52:27;;;;;;;68.00;29.83;;;3.60;99.90;;;;;;5083504;28;20225;-67
2021/12/30 06:54:54;;;;;;;61.33;29.30;;;3.50;99.90;;;;;;5077750;28;20217;-67
2021/12/30 06:57:22;;;;;;;60.03;28.67;;;3.60;99.90;;;;;;5073949;28;20229;-67
2021/12/30 06:59:49;;;;;;;63.07;28.53;;;3.60;99.90;;;;;;5073949;28;20212;-66
2021/12/30 07:02:16;;;;;;;59.97;25.73;;;3.60;99.90;;;;;;5074013;28;20201;-66
2021/12/30 07:04:43;;;;;;;54.13;26.20;;;3.60;99.90;;;;;;5074180;28;20205;-66
2021/12/30 07:07:09;;;;;;;54.77;25.53;;;3.60;99.90;;;;;;5073340;28;20297;-66
2021/12/30 07:09:38;;;;;;;52.23;25.57;;;3.70;99.90;;;;;;5075672;28;20204;-66
2021/12/30 07:12:06;;;;;;;47.67;24.27;;;3.70;99.90;;;;;;5073944;28;20212;-67
2021/12/30 07:14:34;;;;;;;46.57;22.97;;;3.70;99.90;;;;;;5074401;28;20292;-67
2021/12/30 07:17:01;;;;;;;51.97;24.27;;;3.70;99.90;;;;;;5070728;28;20269;-68
2021/12/30 07:19:28;;;;;;;48.97;23.77;;;3.70;99.90;;;;;;5074081;28;20201;-68
2021/12/30 07:21:54;;;;;;;47.93;23.60;;;3.70;99.90;;;;;;5072453;28;20296;-67
2021/12/30 07:24:21;;;;;;;49.93;25.77;;;3.80;99.90;;;;;;5074211;28;20223;-65
2021/12/30 07:26:48;;;;;;;46.13;23.37;;;3.70;99.90;;;;;;5071118;28;20201;-66
2021/12/30 07:29:15;;;;;;;47.23;23.37;;;3.70;99.90;;;;;;5075240;28;20239;-72
2021/12/30 07:31:44;;;;;;;51.23;24.73;;;3.80;99.90;;;;;;5075451;28;20241;-66
2021/12/30 07:34:11;;;;;;;44.57;23.70;;;3.80;99.90;;;;;;5071904;28;20297;-67
2021/12/30 07:36:38;;;;;;;55.40;25.37;;;3.80;99.90;;;;;;5072501;28;20254;-66
2021/12/30 07:39:05;;;;;;;57.57;25.20;;;3.80;99.90;;;;;;5074502;28;20244;-73
2021/12/30 07:41:32;;;;;;;55.63;25.37;;;3.80;99.90;;;;;;5084847;28;20288;-72
2021/12/30 07:43:59;;;;;;;49.63;24.33;;;3.80;99.90;;;;;;5075793;28;20211;-72
2021/12/30 07:46:26;;;;;;;50.73;23.67;;;3.80;99.90;;;;;;5070630;28;20890;-72
2021/12/30 07:48:54;;;;;;;43.60;22.87;;;3.90;99.90;;;;;;5068493;28;20269;-73
2021/12/30 07:51:21;;;;;;;46.40;22.83;;;3.90;99.90;;;;;;5073975;28;20651;-73
2021/12/30 07:53:48;;;;;;;43.07;22.27;;;3.90;99.90;;;;;;5072227;28;20235;-73
2021/12/30 07:56:15;;;;;;;48.47;23.47;;;3.90;99.90;;;;;;5065639;28;20220;-72
2021/12/30 07:58:42;;;;;;;44.60;22.63;;;3.90;99.90;;;;;;5071486;28;20288;-72
2021/12/30 08:01:09;;;;;;;44.57;22.47;;;3.90;99.90;;;;;;5079489;28;20200;-74
2021/12/30 08:03:36;;;;;;;42.07;21.80;;;3.90;99.90;;;;;;5074251;28;20202;-72
2021/12/30 08:06:04;;;;;;;45.33;22.77;;;4.00;99.90;;;;;;5073462;28;21083;-72
2021/12/30 08:08:32;;;;;;;37.93;21.03;;;4.00;99.90;;;;;;5063225;28;20303;-71
2021/12/30 08:10:59;;;;;;;40.40;21.50;;;4.10;99.90;;;;;;5075033;28;20204;-73
2021/12/30 08:13:27;;;;;;;46.97;21.80;;;4.10;99.90;;;;;;5075127;28;20217;-74
2021/12/30 08:15:55;;;;;;;42.07;21.23;;;4.10;99.90;;;;;;5067071;28;20332;-71
2021/12/30 08:18:22;;;;;;;42.27;21.97;;;4.10;99.90;;;;;;5058418;28;20267;-73
2021/12/30 08:20:49;;;;;;;42.93;21.90;;;4.20;99.90;;;;;;5074523;28;20202;-71
2021/12/30 08:23:17;;;;;;;45.23;22.03;;;4.20;99.90;;;;;;5073455;28;20255;-72
2021/12/30 08:25:49;;;;;;;46.13;23.20;;;4.20;99.90;;;;;;5072334;28;20293;-71
2021/12/30 08:28:16;;;;;;;40.03;21.50;;;4.20;99.90;;;;;;5073087;28;20643;-70
2021/12/30 08:30:43;;;;;;;48.80;22.77;;;4.20;99.90;;;;;;5075527;28;20497;-71
2021/12/30 08:33:10;;;;;;;44.07;24.37;;;4.20;99.90;;;;;;5074586;28;20233;-70
2021/12/30 08:35:37;;;;;;;41.70;22.73;;;4.20;99.90;;;;;;5065790;28;20264;-70
2021/12/30 08:38:04;;;;;;;44.90;22.53;;;4.20;99.90;;;;;;5066933;28;20244;-70
2021/12/30 08:40:33;;;;;;;46.70;23.30;;;4.30;99.90;;;;;;5073335;28;20301;-71
2021/12/30 08:43:00;;;;;;;42.77;22.63;;;4.30;99.90;;;;;;5073901;28;20235;-71
2021/12/30 08:45:27;;;;;;;43.67;22.53;;;4.30;99.90;;;;;;5075541;28;20212;-70
2021/12/30 08:47:54;;;;;;;41.50;22.20;;;4.30;99.90;;;;;;5067756;28;20288;-71
2021/12/30 08:50:21;;;;;;;42.63;22.17;;;4.40;99.90;;;;;;5077151;28;20197;-71
2021/12/30 08:52:48;;;;;;;41.90;22.57;;;4.40;99.90;;;;;;5074528;28;20225;-70
2021/12/30 08:55:17;;;;;;;44.33;22.63;;;4.40;99.90;;;;;;5069069;28;20232;-70
2021/12/30 08:57:47;;;;;;;45.67;22.40;;;4.50;99.90;;;;;;5066901;28;20225;-70
2021/12/30 09:00:17;;;;;;;42.00;21.50;;;4.50;99.90;;;;;;5073419;28;20251;-68
2021/12/30 09:02:44;;;;;;;42.37;22.17;;;4.50;99.90;;;;;;5072667;28;20244;-67
2021/12/30 09:05:12;;;;;;;43.90;21.40;;;4.50;99.90;;;;;;5072570;28;20527;-70
2021/12/30 09:07:39;;;;;;;43.03;21.90;;;4.50;99.90;;;;;;5072735;28;20209;-69
2021/12/30 09:10:07;;;;;;;38.87;21.90;;;4.50;99.90;;;;;;5073290;28;20288;-71
2021/12/30 09:12:34;;;;;;;40.87;21.53;;;4.60;99.90;;;;;;5072106;28;20284;-70
2021/12/30 09:15:04;;;;;;;41.53;23.13;;;4.60;99.90;;;;;;5073745;28;20212;-69
2021/12/30 09:17:31;;;;;;;41.20;22.30;;;4.60;99.90;;;;;;5072530;28;20202;-71
2021/12/30 09:19:58;;;;;;;42.30;23.30;;;4.60;99.90;;;;;;5072364;28;20268;-72
2021/12/30 09:22:25;;;;;;;43.57;22.20;;;4.60;99.90;;;;;;5071415;28;20207;-68
2021/12/30 09:24:52;;;;;;;43.93;22.80;;;4.60;99.90;;;;;;5073197;28;20292;-69
2021/12/30 09:27:19;;;;;;;41.10;21.73;;;4.60;99.90;;;;;;5074867;28;20254;-70
2021/12/30 09:29:46;;;;;;;42.83;23.40;;;4.60;99.90;;;;;;5073641;28;20327;-70
2021/12/30 09:32:14;;;;;;;50.87;23.00;;;4.60;99.90;;;;;;5072743;28;20217;-70
2021/12/30 09:34:41;;;;;;;37.97;20.53;;;4.60;99.90;;;;;;5060187;28;20217;-70
2021/12/30 09:37:10;;;;;;;41.77;23.47;;;4.60;99.90;;;;;;5072009;28;20209;-71
2021/12/30 09:39:37;;;;;;;45.90;24.20;;;4.70;99.90;;;;;;5067354;28;20205;-69
2021/12/30 09:42:05;;;;;;;41.23;22.33;;;4.70;99.90;;;;;;5070447;28;20205;-68
2021/12/30 09:44:32;;;;;;;42.17;22.83;;;4.70;99.90;;;;;;5070279;28;20542;-67
2021/12/30 09:46:59;;;;;;;43.60;22.70;;;4.70;99.90;;;;;;5070764;28;20634;-69
2021/12/30 09:49:28;;;;;;;39.23;21.83;;;4.70;99.90;;;;;;5070753;28;20209;-69
2021/12/30 09:51:56;;;;;;;43.07;23.17;;;4.80;99.90;;;;;;5069759;28;20201;-69
2021/12/30 09:54:23;;;;;;;41.10;21.67;;;4.70;99.90;;;;;;5063244;28;20594;-69
2021/12/30 09:56:51;;;;;;;39.97;21.33;;;4.70;99.90;;;;;;5073910;28;20217;-69
2021/12/30 09:59:19;;;;;;;42.23;23.10;;;4.80;99.90;;;;;;5073951;28;20284;-69
2021/12/30 10:01:46;;;;;;;44.77;23.67;;;4.80;99.90;;;;;;5072894;28;20211;-68
2021/12/30 10:04:14;;;;;;;45.50;23.10;;;4.80;99.90;;;;;;5062033;28;20202;-70
2021/12/30 10:06:46;;;;;;;44.17;23.53;;;4.90;99.90;;;;;;5055934;28;20205;-70
2021/12/30 10:09:15;;;;;;;40.57;22.17;;;4.90;99.90;;;;;;5072756;28;20346;-70
2021/12/30 10:11:50;;;;;;;43.40;22.17;;;4.90;99.90;;;;;;5068953;28;20256;-70
2021/12/30 10:14:28;;;;;;;42.20;22.07;;;5.00;99.90;;;;;;5071136;28;20628;-68
2021/12/30 10:17:17;;;;;;;49.45;28.13;;;5.00;99.90;;;;;;5067841;28;20454;-70
2021/12/30 10:19:45;;;;;;;41.10;23.37;;;5.00;99.90;;;;;;5062725;28;20202;-75
2021/12/30 10:22:15;;;;;;;44.60;23.83;;;5.00;99.90;;;;;;5072755;28;20978;-73
2021/12/30 10:24:42;;;;;;;46.73;23.20;;;5.00;99.90;;;;;;5074836;28;20626;-71
2021/12/30 10:27:09;;;;;;;43.17;22.50;;;5.00;99.90;;;;;;5073621;28;20208;-73
2021/12/30 10:29:43;;;;;;;53.83;26.67;;;5.00;99.90;;;;;;5065961;28;20255;-73
2021/12/30 10:32:15;;;;;;;44.70;22.80;;;5.00;99.90;;;;;;5075240;28;20287;-73
2021/12/30 10:35:06;;;;;;;46.77;23.97;;;5.10;99.90;;;;;;5072181;28;20267;-72
2021/12/30 10:37:36;;;;;;;35.83;22.43;;;5.10;99.90;;;;;;5072567;28;20209;-72
2021/12/30 10:40:05;;;;;;;40.20;24.13;;;5.10;99.90;;;;;;5073263;28;20264;-73
2021/12/30 10:42:33;;;;;;;43.50;24.07;;;5.10;99.90;;;;;;5074250;28;20267;-73
2021/12/30 10:45:04;;;;;;;40.20;22.80;;;5.10;99.90;;;;;;5069130;28;20272;-72
2021/12/30 10:47:33;;;;;;;44.00;23.30;;;5.10;99.90;;;;;;5072836;28;20276;-74
2021/12/30 10:50:02;;;;;;;43.07;24.73;;;5.10;99.90;;;;;;5073122;28;20220;-73
2021/12/30 10:52:30;;;;;;;47.83;23.67;;;5.10;99.90;;;;;;5073866;28;20224;-74
2021/12/30 10:55:00;;;;;;;43.10;24.00;;;5.10;99.90;;;;;;5073859;28;20595;-73
2021/12/30 10:57:29;;;;;;;40.57;23.77;;;5.20;99.90;;;;;;5072744;28;20755;-75
2021/12/30 10:59:57;;;;;;;36.77;22.27;;;5.20;99.90;;;;;;5073753;28;20209;-74
2021/12/30 11:02:26;;;;;;;42.73;24.47;;;5.20;99.90;;;;;;5071113;28;20197;-74
2021/12/30 11:04:56;;;;;;;47.27;24.37;;;5.30;99.90;;;;;;5055858;28;20209;-73
2021/12/30 11:07:24;;;;;;;45.00;24.63;;;5.20;99.90;;;;;;5066959;28;20266;-74
2021/12/30 11:09:54;;;;;;;45.50;24.57;;;5.30;99.90;;;;;;5068796;28;20273;-74
2021/12/30 11:12:28;;;;;;;48.50;24.93;;;5.30;99.90;;;;;;5073475;28;20205;-74
2021/12/30 11:14:55;;;;;;;43.20;25.07;;;5.40;99.90;;;;;;5073855;28;20253;-73
2021/12/30 11:17:29;;;;;;;41.77;24.47;;;5.40;99.90;;;;;;5071757;28;20296;-74
2021/12/30 11:19:59;;;;;;;46.17;25.10;;;5.40;99.90;;;;;;5073881;28;20274;-74
2021/12/30 11:22:28;;;;;;;45.10;24.83;;;5.50;99.90;;;;;;5073714;28;20295;-74
2021/12/30 11:24:58;;;;;;;42.97;23.43;;;5.60;99.90;;;;;;5063008;28;20212;-73
2021/12/30 11:27:28;;;;;;;42.07;24.13;;;5.70;99.90;;;;;;5073861;28;20209;-75
2021/12/30 11:29:57;;;;;;;43.97;23.50;;;5.70;99.90;;;;;;5073422;28;20797;-73
2021/12/30 11:32:26;;;;;;;40.63;23.37;;;5.70;99.90;;;;;;5071642;28;20731;-74
2021/12/30 11:34:53;;;;;;;38.63;22.53;;;5.70;99.90;;;;;;5066118;28;20225;-73
2021/12/30 11:37:21;;;;;;;38.03;22.30;;;5.70;99.90;;;;;;5072940;28;20241;-72
2021/12/30 11:39:50;;;;;;;38.67;21.60;;;5.80;99.90;;;;;;5073683;28;20245;-75
2021/12/30 11:42:19;;;;;;;41.33;22.87;;;5.80;99.90;;;;;;5072647;28;20244;-72
2021/12/30 11:44:49;;;;;;;40.53;23.80;;;5.80;99.90;;;;;;5074555;28;20202;-73
2021/12/30 11:47:42;;;;;;;40.80;22.50;;;5.80;99.90;;;;;;5073747;28;20616;-72
2021/12/30 11:50:16;;;;;;;40.07;23.20;;;5.80;99.90;;;;;;5080051;28;20235;-74
2021/12/30 11:53:01;;;;;;;46.90;24.60;;;5.90;99.90;;;;;;5084106;28;20215;-75
2021/12/30 11:55:48;;;;;;;38.40;23.20;;;6.00;99.90;;;;;;5072330;28;20294;-73
2021/12/30 11:58:45;;;;;;;41.10;23.07;;;6.30;99.90;;;;;;5072699;28;20212;-76
2021/12/30 12:01:35;;;;;;;38.70;23.37;;;6.50;99.90;;;;;;5074121;28;20267;-71
2021/12/30 12:04:08;;;;;;;40.13;23.17;;;6.70;99.90;;;;;;5071459;28;20700;-72
2021/12/30 12:06:42;;;;;;;41.50;21.87;;;6.80;99.90;;;;;;5062178;28;20206;-73
2021/12/30 12:09:12;;;;;;;38.57;22.60;;;7.00;99.90;;;;;;5068748;28;20227;-72
2021/12/30 12:11:53;;;;;;;35.63;23.07;;;7.10;99.90;;;;;;5070217;28;20217;-76
2021/12/30 12:14:22;;;;;;;42.43;22.90;;;7.20;99.90;;;;;;5075568;28;20732;-69
2021/12/30 12:16:55;;;;;;;35.63;23.27;;;7.30;99.90;;;;;;5072561;28;20201;-73
2021/12/30 12:19:32;;;;;;;38.90;23.73;;;7.40;99.90;;;;;;5071696;28;20197;-74
2021/12/30 12:21:59;;;;;;;44.40;22.87;;;7.30;99.90;;;;;;5071596;28;20209;-73
2021/12/30 12:24:34;;;;;;;43.30;23.23;;;7.30;99.90;;;;;;5058280;28;20230;-73
2021/12/30 12:27:04;;;;;;;36.47;21.03;;;7.20;99.90;;;;;;5095716;28;20691;-74
2021/12/30 12:29:33;;;;;;;34.37;22.40;;;7.10;99.90;;;;;;5084362;28;20251;-76
2021/12/30 12:32:07;;;;;;;35.87;21.70;;;6.90;99.90;;;;;;5092979;28;20209;-74
2021/12/30 12:34:37;;;;;;;35.40;21.67;;;6.90;99.90;;;;;;5089115;28;20698;-75
2021/12/30 12:37:05;;;;;;;36.20;20.60;;;6.80;99.90;;;;;;5081041;28;20597;-75
2021/12/30 12:39:37;;;;;;;30.53;19.83;;;6.70;99.90;;;;;;5078649;28;20207;-74
2021/12/30 12:42:05;;;;;;;35.63;19.93;;;6.60;99.90;;;;;;5078272;28;20297;-74